createdAt,value
2022-09-28T00:01:47.324Z,99122.47
2022-09-28T00:04:20.599Z,99121.06
2022-09-28T00:06:50.760Z,99120.84
2022-09-28T00:09:20.937Z,99114.94
2022-09-28T00:11:51.061Z,99113.09
2022-09-28T00:14:21.212Z,99120.69
2022-09-28T00:16:51.308Z,99118.03
2022-09-28T00:19:26.373Z,99117.81
2022-09-28T00:21:56.391Z,99117.66
2022-09-28T00:24:27.924Z,99114.41
2022-09-28T00:27:01.483Z,99124.22
2022-09-28T00:29:33.982Z,99113.38
2022-09-28T00:32:07.011Z,99116.47
2022-09-28T00:34:41.378Z,99114.81
2022-09-28T00:37:12.976Z,99108.25
2022-09-28T00:39:44.069Z,99110.09
2022-09-28T00:42:16.764Z,99105.22
2022-09-28T00:44:51.209Z,99103.78
2022-09-28T00:47:49.832Z,99108.91
2022-09-28T00:50:28.118Z,99102.97
2022-09-28T00:53:04.808Z,99104.44
2022-09-28T00:55:40.998Z,99096.91
2022-09-28T00:58:15.302Z,99099.56
2022-09-28T01:00:45.932Z,99100.16
2022-09-28T01:03:16.640Z,99098.75
2022-09-28T01:05:51.216Z,99105.91
2022-09-28T01:08:24.573Z,99106.94
2022-09-28T01:10:55.070Z,99103.03
2022-09-28T01:13:27.046Z,99108.13
2022-09-28T01:16:08.198Z,99104.44
2022-09-28T01:18:49.287Z,99101.19
2022-09-28T01:21:23.430Z,99101.56
2022-09-28T01:24:24.171Z,99090.09
2022-09-28T01:27:04.276Z,99094.19
2022-09-28T01:29:53.835Z,99088.88
2022-09-28T01:32:33.673Z,99094.19
2022-09-28T01:35:08.202Z,99082.72
2022-09-28T01:37:47.609Z,99088.25
2022-09-28T01:40:19.873Z,99082.13
2022-09-28T01:42:57.216Z,99084.56
2022-09-28T01:45:31.319Z,99090.50
2022-09-28T01:48:05.004Z,99081.47
2022-09-28T01:50:41.046Z,99081.69
2022-09-28T01:53:18.814Z,99079.47
2022-09-28T01:55:53.415Z,99077.63
2022-09-28T01:58:35.958Z,99078.06
2022-09-28T02:01:13.203Z,99071.47
2022-09-28T02:03:50.648Z,99065.94
2022-09-28T02:06:27.693Z,99066.53
2022-09-28T02:09:02.698Z,99073.72
2022-09-28T02:11:47.970Z,99069.22
2022-09-28T02:14:22.562Z,99067.19
2022-09-28T02:16:56.819Z,99063.94
2022-09-28T02:19:34.121Z,99066.81
2022-09-28T02:22:14.243Z,99070.50
2022-09-28T02:24:47.582Z,99066.81
2022-09-28T02:27:34.794Z,99068.22
2022-09-28T02:30:09.394Z,99068.00
2022-09-28T02:32:42.843Z,99067.78
2022-09-28T02:35:15.472Z,99068.59
2022-09-28T02:37:46.106Z,99065.72
2022-09-28T02:40:18.069Z,99063.28
2022-09-28T02:42:56.807Z,99063.94
2022-09-28T02:45:41.098Z,99059.66
2022-09-28T02:48:41.542Z,99068.81
2022-09-28T02:51:24.055Z,99066.38
2022-09-28T02:54:15.427Z,99066.00
2022-09-28T02:57:03.327Z,99059.88
2022-09-28T02:59:47.815Z,99056.16
2022-09-28T03:02:28.643Z,99056.16
2022-09-28T03:05:14.853Z,99053.13
2022-09-28T03:07:52.095Z,99046.19
2022-09-28T03:10:28.439Z,99049.47
2022-09-28T03:13:00.488Z,99050.09
2022-09-28T03:15:32.495Z,99046.25
2022-09-28T03:18:06.682Z,99047.88
2022-09-28T03:20:37.365Z,99046.03
2022-09-28T03:23:23.699Z,99040.72
2022-09-28T03:25:54.914Z,99046.84
2022-09-28T03:28:25.014Z,99043.16
2022-09-28T03:30:55.413Z,99042.56
2022-09-28T03:33:28.291Z,99034.00
2022-09-28T03:35:58.017Z,99034.81
2022-09-28T03:38:27.863Z,99033.78
2022-09-28T03:40:59.578Z,99025.78
2022-09-28T03:43:33.455Z,99027.63
2022-09-28T03:46:05.862Z,99024.75
2022-09-28T03:48:44.086Z,99028.25
2022-09-28T03:51:15.414Z,99026.22
2022-09-28T03:53:45.298Z,99026.00
2022-09-28T03:56:17.500Z,99027.84
2022-09-28T03:58:47.537Z,99019.03
2022-09-28T04:01:18.814Z,99018.22
2022-09-28T04:03:57.115Z,99008.41
2022-09-28T04:06:28.438Z,99004.72
2022-09-28T04:08:58.835Z,99003.91
2022-09-28T04:11:38.506Z,98997.94
2022-09-28T04:14:19.378Z,98996.94
2022-09-28T04:16:49.258Z,98993.44
2022-09-28T04:19:22.257Z,99004.28
2022-09-28T04:22:10.503Z,99004.28
2022-09-28T04:24:43.529Z,99006.16
2022-09-28T04:27:25.860Z,99003.91
2022-09-28T04:29:55.712Z,99001.47
2022-09-28T04:32:25.663Z,99003.91
2022-09-28T04:34:58.222Z,98998.00
2022-09-28T04:37:28.101Z,99000.06
2022-09-28T04:39:58.050Z,98999.88
2022-09-28T04:42:27.803Z,99001.94
2022-09-28T04:44:58.831Z,98998.69
2022-09-28T04:47:28.965Z,99004.00
2022-09-28T04:50:24.670Z,99008.72
2022-09-28T04:53:18.158Z,99005.47
2022-09-28T04:55:58.357Z,99001.59
2022-09-28T04:58:28.975Z,98999.56
2022-09-28T05:01:02.718Z,99004.06
2022-09-28T05:03:50.963Z,99007.31
2022-09-28T05:06:40.122Z,99006.50
2022-09-28T05:09:12.156Z,99009.16
2022-09-28T05:11:42.328Z,99009.75
2022-09-28T05:14:18.024Z,99011.38
2022-09-28T05:16:47.921Z,99009.75
2022-09-28T05:19:30.399Z,99015.06
2022-09-28T05:22:11.557Z,99010.34
2022-09-28T05:24:46.463Z,99015.25
2022-09-28T05:27:16.887Z,99013.00
2022-09-28T05:29:50.398Z,99010.16
2022-09-28T05:32:52.722Z,99012.41
2022-09-28T05:35:40.987Z,99013.88
2022-09-28T05:38:13.390Z,99005.47
2022-09-28T05:40:43.253Z,99010.56
2022-09-28T05:43:13.543Z,99011.38
2022-09-28T05:45:43.342Z,99005.69
2022-09-28T05:48:13.612Z,99008.97
2022-09-28T05:50:44.260Z,99004.66
2022-09-28T05:53:16.658Z,99004.88
2022-09-28T05:55:46.496Z,99000.53
2022-09-28T05:58:16.821Z,99007.28
2022-09-28T06:00:46.812Z,99006.03
2022-09-28T06:03:17.768Z,99001.13
2022-09-28T06:05:48.183Z,98990.50
2022-09-28T06:08:21.076Z,98987.63
2022-09-28T06:11:02.910Z,98989.84
2022-09-28T06:13:32.919Z,98983.66
2022-09-28T06:16:04.971Z,98984.03
2022-09-28T06:18:34.979Z,98983.69
2022-09-28T06:21:17.853Z,98980.34
2022-09-28T06:23:52.153Z,98971.72
2022-09-28T06:26:23.328Z,98972.25
2022-09-28T06:28:53.784Z,98974.78
2022-09-28T06:31:25.156Z,98971.53
2022-09-28T06:33:57.211Z,98968.50
2022-09-28T06:36:27.493Z,98964.22
2022-09-28T06:39:00.168Z,98971.69
2022-09-28T06:41:30.362Z,98971.16
2022-09-28T06:44:03.868Z,98972.53
2022-09-28T06:46:56.020Z,98959.72
2022-09-28T06:49:39.557Z,98970.66
2022-09-28T06:52:41.866Z,98973.41
2022-09-28T06:55:31.867Z,98974.94
2022-09-28T06:58:06.758Z,98970.09
2022-09-28T07:00:38.893Z,98970.78
2022-09-28T07:03:11.783Z,98967.44
2022-09-28T07:06:04.862Z,98965.03
2022-09-28T07:09:00.067Z,98961.47
2022-09-28T07:12:24.073Z,98959.13
2022-09-28T07:14:57.964Z,98968.56
2022-09-28T07:17:32.406Z,98960.72
2022-09-28T07:20:15.101Z,98961.97
2022-09-28T07:22:49.686Z,98977.63
2022-09-28T07:25:24.047Z,98974.81
2022-09-28T07:28:13.712Z,98978.31
2022-09-28T07:31:13.429Z,98971.63
2022-09-28T07:34:02.656Z,98974.69
2022-09-28T07:36:39.223Z,98977.13
2022-09-28T07:39:09.398Z,98977.53
2022-09-28T07:41:38.504Z,98973.53
2022-09-28T07:44:12.454Z,98975.19
2022-09-28T07:46:43.541Z,98978.59
2022-09-28T07:49:23.078Z,98969.53
2022-09-28T07:52:01.185Z,98980.59
2022-09-28T07:54:41.378Z,98978.44
2022-09-28T07:57:40.062Z,98974.94
2022-09-28T08:00:29.807Z,98973.56
2022-09-28T08:03:02.815Z,98973.63
2022-09-28T08:05:35.916Z,98976.81
2022-09-28T08:08:06.156Z,98973.63
2022-09-28T08:10:37.599Z,98979.19
2022-09-28T08:13:27.772Z,98985.78
2022-09-28T08:16:08.452Z,98980.59
2022-09-28T08:18:43.387Z,98976.19
2022-09-28T08:21:25.830Z,98980.00
2022-09-28T08:23:55.837Z,98977.06
2022-09-28T08:26:25.849Z,98981.25
2022-09-28T08:28:55.811Z,98975.53
2022-09-28T08:31:46.810Z,98990.03
2022-09-28T08:34:37.443Z,98978.94
2022-09-28T08:37:08.685Z,98981.84
2022-09-28T08:39:57.231Z,98982.16
2022-09-28T08:42:47.737Z,98978.88
2022-09-28T08:45:36.496Z,98979.25
2022-09-28T08:48:36.333Z,98987.88
2022-09-28T08:51:31.376Z,98981.72
2022-09-28T08:54:29.993Z,98991.13
2022-09-28T08:57:08.308Z,99001.00
2022-09-28T08:59:49.233Z,98990.09
2022-09-28T09:02:28.722Z,98991.19
2022-09-28T09:05:20.339Z,98989.19
2022-09-28T09:08:18.366Z,98988.38
2022-09-28T09:10:54.887Z,98992.75
2022-09-28T09:14:07.999Z,98983.72
2022-09-28T09:16:47.999Z,98981.00
2022-09-28T09:19:39.246Z,98990.88
2022-09-28T09:22:41.683Z,98996.25
2022-09-28T09:25:21.524Z,98986.16
2022-09-28T09:28:13.829Z,98987.31
2022-09-28T09:30:52.188Z,98984.16
2022-09-28T09:33:52.152Z,98995.31
2022-09-28T09:36:53.584Z,98991.38
2022-09-28T09:40:02.100Z,98992.41
2022-09-28T09:43:03.813Z,98994.97
2022-09-28T09:46:14.481Z,98991.81
2022-09-28T09:49:11.618Z,98985.56
2022-09-28T09:51:48.273Z,98986.38
2022-09-28T09:54:25.166Z,98987.66
2022-09-28T09:57:03.706Z,98997.88
2022-09-28T10:00:07.943Z,98998.78
2022-09-28T10:02:46.153Z,98980.22
2022-09-28T10:05:35.204Z,98988.69
2022-09-28T10:08:13.670Z,98994.69
2022-09-28T10:10:54.446Z,98983.69
2022-09-28T10:13:26.994Z,98988.34
2022-09-28T10:16:02.126Z,98982.38
2022-09-28T10:18:39.046Z,98988.00
2022-09-28T10:21:50.335Z,98981.81
2022-09-28T10:24:32.424Z,98988.44
2022-09-28T10:27:08.141Z,98972.41
2022-09-28T10:29:48.646Z,98976.66
2022-09-28T10:32:24.250Z,98966.69
2022-09-28T10:35:16.020Z,98964.88
2022-09-28T10:37:52.390Z,98963.94
2022-09-28T10:40:47.805Z,98969.13
2022-09-28T10:43:28.820Z,98970.28
2022-09-28T10:46:09.930Z,98967.78
2022-09-28T10:48:54.489Z,98976.41
2022-09-28T10:51:43.233Z,98970.13
2022-09-28T10:54:20.451Z,98976.88
2022-09-28T10:56:54.550Z,98972.75
2022-09-28T10:59:47.628Z,98973.75
2022-09-28T11:02:36.371Z,98980.47
2022-09-28T11:05:30.200Z,98975.03
2022-09-28T11:08:03.356Z,98973.53
2022-09-28T11:10:41.147Z,98975.78
2022-09-28T11:13:17.072Z,98970.09
2022-09-28T11:15:55.915Z,98976.13
2022-09-28T11:18:37.060Z,98966.97
2022-09-28T11:21:13.118Z,98975.13
2022-09-28T11:24:01.404Z,98974.50
2022-09-28T11:26:39.262Z,98975.34
2022-09-28T11:29:21.167Z,98975.34
2022-09-28T11:32:03.364Z,98977.19
2022-09-28T11:34:58.653Z,98982.88
2022-09-28T11:37:52.020Z,98981.34
2022-09-28T11:40:50.727Z,98980.38
2022-09-28T11:43:34.541Z,98987.47
2022-09-28T11:46:12.123Z,98982.28
2022-09-28T11:48:47.755Z,98974.25
2022-09-28T11:51:26.409Z,98981.34
2022-09-28T11:54:02.387Z,98982.28
2022-09-28T11:56:40.988Z,98980.69
2022-09-28T11:59:17.737Z,98977.44
2022-09-28T12:01:56.330Z,98981.16
2022-09-28T12:04:47.183Z,98989.19
2022-09-28T12:07:28.915Z,98995.22
2022-09-28T12:10:08.245Z,98993.16
2022-09-28T12:12:42.570Z,98988.06
2022-09-28T12:15:19.659Z,98989.19
2022-09-28T12:17:53.841Z,98986.00
2022-09-28T12:20:27.782Z,98987.47
2022-09-28T12:23:08.240Z,98995.41
2022-09-28T12:25:46.498Z,98986.97
2022-09-28T12:28:24.810Z,98981.50
2022-09-28T12:30:57.460Z,98978.41
2022-09-28T12:33:27.491Z,98981.34
2022-09-28T12:36:10.491Z,98989.41
2022-09-28T12:39:17.999Z,98990.47
2022-09-28T12:42:05.762Z,98992.25
2022-09-28T12:44:49.801Z,98984.00
2022-09-28T12:47:57.220Z,98990.78
2022-09-28T12:50:38.673Z,98985.66
2022-09-28T12:53:29.737Z,98991.22
2022-09-28T12:56:06.455Z,98985.31
2022-09-28T12:59:00.544Z,98992.53
2022-09-28T13:01:47.215Z,98985.31
2022-09-28T13:04:58.714Z,98992.06
2022-09-28T13:07:38.727Z,98994.47
2022-09-28T13:10:20.237Z,98996.00
2022-09-28T13:13:06.297Z,99001.25
2022-09-28T13:15:45.741Z,98996.97
2022-09-28T13:18:24.765Z,98999.22
2022-09-28T13:21:13.040Z,98994.56
2022-09-28T13:23:45.960Z,99004.34
2022-09-28T13:26:22.485Z,99002.38
2022-09-28T13:28:57.701Z,98994.81
2022-09-28T13:31:33.960Z,98995.06
2022-09-28T13:34:07.453Z,99000.16
2022-09-28T13:36:47.845Z,98997.59
2022-09-28T13:39:52.349Z,99009.47
2022-09-28T13:42:53.549Z,99004.69
2022-09-28T13:45:51.881Z,98997.84
2022-09-28T13:48:25.736Z,99008.44
2022-09-28T13:51:19.112Z,99005.75
2022-09-28T13:54:10.427Z,99011.34
2022-09-28T13:56:50.050Z,99011.69
2022-09-28T13:59:27.144Z,99020.53
2022-09-28T14:02:06.893Z,99018.66
2022-09-28T14:04:57.085Z,99020.06
2022-09-28T14:07:29.705Z,99021.69
2022-09-28T14:10:21.214Z,99024.56
2022-09-28T14:12:52.164Z,99025.63
2022-09-28T14:15:47.889Z,99025.50
2022-09-28T14:18:31.577Z,99028.63
2022-09-28T14:21:31.969Z,99029.78
2022-09-28T14:24:15.492Z,99027.13
2022-09-28T14:27:22.760Z,99039.44
2022-09-28T14:29:58.188Z,99040.72
2022-09-28T14:32:36.614Z,99032.69
2022-09-28T14:35:18.735Z,99030.59
2022-09-28T14:38:05.165Z,99039.19
2022-09-28T14:40:51.693Z,99045.94
2022-09-28T14:43:30.847Z,99040.34
2022-09-28T14:46:33.240Z,99043.63
2022-09-28T14:49:04.469Z,99049.53
2022-09-28T14:52:06.029Z,99048.50
2022-09-28T14:54:57.064Z,99047.31
2022-09-28T14:57:31.850Z,99051.03
2022-09-28T15:00:03.352Z,99051.16
2022-09-28T15:02:35.311Z,99060.44
2022-09-28T15:05:17.205Z,99052.44
2022-09-28T15:07:52.353Z,99056.28
2022-09-28T15:10:32.060Z,99058.28
2022-09-28T15:13:04.031Z,99057.47
2022-09-28T15:15:37.400Z,99053.75
2022-09-28T15:18:35.065Z,99053.38
2022-09-28T15:21:05.198Z,99060.34
2022-09-28T15:23:43.113Z,99062.19
2022-09-28T15:26:27.465Z,99061.53
2022-09-28T15:28:58.344Z,99057.81
2022-09-28T15:31:30.869Z,99063.63
2022-09-28T15:34:13.127Z,99060.22
2022-09-28T15:36:46.555Z,99074.84
2022-09-28T15:39:22.890Z,99068.94
2022-09-28T15:41:53.679Z,99062.31
2022-09-28T15:44:33.046Z,99069.97
2022-09-28T15:47:19.310Z,99073.69
2022-09-28T15:49:58.946Z,99071.25
2022-09-28T15:52:34.184Z,99067.19
2022-09-28T15:55:15.236Z,99079.94
2022-09-28T15:57:45.284Z,99078.78
2022-09-28T16:00:28.947Z,99078.31
2022-09-28T16:03:05.599Z,99081.44
2022-09-28T16:05:46.811Z,99078.19
2022-09-28T16:08:24.794Z,99084.31
2022-09-28T16:11:05.257Z,99084.09
2022-09-28T16:13:36.478Z,99085.56
2022-09-28T16:16:06.360Z,99094.25
2022-09-28T16:18:41.765Z,99095.97
2022-09-28T16:21:55.967Z,99095.50
2022-09-28T16:24:29.694Z,99103.38
2022-09-28T16:27:05.519Z,99101.75
2022-09-28T16:29:40.420Z,99101.75
2022-09-28T16:32:41.692Z,99111.72
2022-09-28T16:35:21.744Z,99110.09
2022-09-28T16:37:58.534Z,99115.19
2022-09-28T16:40:29.648Z,99119.00
2022-09-28T16:43:05.675Z,99119.22
2022-09-28T16:45:35.794Z,99121.66
2022-09-28T16:48:06.898Z,99121.44
2022-09-28T16:50:36.908Z,99127.44
2022-09-28T16:53:28.547Z,99128.50
2022-09-28T16:55:58.401Z,99124.84
2022-09-28T16:58:31.706Z,99134.56
2022-09-28T17:01:01.848Z,99128.19
2022-09-28T17:03:32.067Z,99134.78
2022-09-28T17:06:01.876Z,99136.06
2022-09-28T17:08:31.920Z,99135.00
2022-09-28T17:11:14.935Z,99136.63
2022-09-28T17:13:50.192Z,99141.97
2022-09-28T17:16:37.060Z,99139.16
2022-09-28T17:19:21.667Z,99134.88
2022-09-28T17:21:51.758Z,99137.31
2022-09-28T17:24:22.383Z,99144.06
2022-09-28T17:26:54.958Z,99150.19
2022-09-28T17:29:27.831Z,99153.09
2022-09-28T17:31:57.622Z,99149.38
2022-09-28T17:34:27.412Z,99152.66
2022-09-28T17:36:57.253Z,99154.72
2022-09-28T17:39:27.352Z,99154.34
2022-09-28T17:41:57.628Z,99165.84
2022-09-28T17:44:30.317Z,99164.22
2022-09-28T17:47:00.680Z,99165.84
2022-09-28T17:49:30.488Z,99168.50
2022-09-28T17:52:00.234Z,99162.13
2022-09-28T17:54:30.285Z,99165.16
2022-09-28T17:57:00.057Z,99171.91
2022-09-28T17:59:32.504Z,99166.56
2022-09-28T18:02:02.790Z,99168.44
2022-09-28T18:04:51.212Z,99172.72
2022-09-28T18:07:21.843Z,99176.78
2022-09-28T18:09:56.736Z,99182.81
2022-09-28T18:12:27.620Z,99179.31
2022-09-28T18:15:00.169Z,99176.06
2022-09-28T18:17:30.329Z,99175.47
2022-09-28T18:20:00.228Z,99179.19
2022-09-28T18:22:30.195Z,99178.38
2022-09-28T18:25:00.340Z,99187.19
2022-09-28T18:27:30.733Z,99190.88
2022-09-28T18:30:03.487Z,99204.22
2022-09-28T18:32:33.382Z,99207.13
2022-09-28T18:35:03.208Z,99205.47
2022-09-28T18:37:33.431Z,99211.03
2022-09-28T18:40:03.724Z,99210.00
2022-09-28T18:42:35.689Z,99221.72
2022-09-28T18:45:11.295Z,99214.75
2022-09-28T18:47:41.692Z,99215.56
2022-09-28T18:50:15.457Z,99224.00
2022-09-28T18:52:47.297Z,99222.38
2022-09-28T18:55:17.216Z,99231.19
2022-09-28T18:57:47.611Z,99224.22
2022-09-28T19:00:20.286Z,99233.69
2022-09-28T19:02:50.286Z,99234.75
2022-09-28T19:05:20.256Z,99232.50
2022-09-28T19:07:50.078Z,99230.28
2022-09-28T19:10:20.196Z,99234.00
2022-09-28T19:12:52.011Z,99233.38
2022-09-28T19:15:25.669Z,99237.06
2022-09-28T19:17:55.879Z,99239.13
2022-09-28T19:20:25.678Z,99237.28
2022-09-28T19:22:55.641Z,99241.22
2022-09-28T19:25:25.415Z,99239.59
2022-09-28T19:27:55.472Z,99245.34
2022-09-28T19:30:27.948Z,99247.41
2022-09-28T19:32:57.685Z,99247.63
2022-09-28T19:35:27.535Z,99248.91
2022-09-28T19:37:57.298Z,99249.34
2022-09-28T19:40:27.301Z,99247.09
2022-09-28T19:42:57.171Z,99251.84
2022-09-28T19:45:30.758Z,99247.97
2022-09-28T19:48:01.734Z,99246.56
2022-09-28T19:50:32.382Z,99251.31
2022-09-28T19:53:02.259Z,99255.22
2022-09-28T19:55:36.347Z,99257.06
2022-09-28T19:58:06.277Z,99246.00
2022-09-28T20:00:40.059Z,99256.84
2022-09-28T20:03:09.886Z,99260.31
2022-09-28T20:05:42.504Z,99262.38
2022-09-28T20:08:12.666Z,99259.72
2022-09-28T20:10:42.484Z,99267.13
2022-09-28T20:13:12.681Z,99274.50
2022-09-28T20:15:48.362Z,99268.78
2022-09-28T20:20:51.283Z,99275.97
2022-09-28T20:23:21.831Z,99277.00
2022-09-28T20:25:55.185Z,99284.19
2022-09-28T20:28:25.039Z,99276.63
2022-09-28T20:31:03.982Z,99277.06
2022-09-28T20:33:36.246Z,99283.63
2022-09-28T20:36:09.936Z,99290.00
2022-09-28T20:38:40.585Z,99286.94
2022-09-28T20:41:11.123Z,99288.63
2022-09-28T20:43:42.450Z,99281.03
2022-09-28T20:46:17.692Z,99288.84
2022-09-28T20:48:49.428Z,99294.16
2022-09-28T20:51:21.513Z,99296.22
2022-09-28T20:53:52.952Z,99292.75
2022-09-28T20:56:24.976Z,99299.91
2022-09-28T20:58:55.467Z,99300.34
2022-09-28T21:01:30.129Z,99308.34
2022-09-28T21:04:01.429Z,99309.16
2022-09-28T21:06:33.074Z,99309.38
2022-09-28T21:09:03.152Z,99316.09
2022-09-28T21:11:34.321Z,99311.38
2022-09-28T21:14:06.501Z,99317.13
2022-09-28T21:16:38.947Z,99312.03
2022-09-28T21:19:09.371Z,99321.66
2022-09-28T21:21:39.291Z,99322.47
2022-09-28T21:24:09.889Z,99319.81
2022-09-28T21:26:39.874Z,99329.44
2022-09-28T21:29:13.649Z,99319.00
2022-09-28T21:31:48.606Z,99330.25
2022-09-28T21:34:21.486Z,99333.50
2022-09-28T21:36:52.887Z,99330.63
2022-09-28T21:39:23.229Z,99329.81
2022-09-28T21:41:53.057Z,99333.09
2022-09-28T21:44:22.934Z,99337.59
2022-09-28T21:46:55.334Z,99338.41
2022-09-28T21:49:25.238Z,99340.69
2022-09-28T21:51:54.987Z,99339.03
2022-09-28T21:54:24.770Z,99341.91
2022-09-28T21:56:54.541Z,99344.59
2022-09-28T21:59:24.286Z,99342.94
2022-09-28T22:01:56.697Z,99342.34
2022-09-28T22:04:26.546Z,99345.63
2022-09-28T22:06:56.293Z,99348.28
2022-09-28T22:09:26.236Z,99345.00
2022-09-28T22:11:56.007Z,99354.63
2022-09-28T22:14:27.244Z,99351.75
2022-09-28T22:16:59.631Z,99347.03
2022-09-28T22:19:29.409Z,99351.34
2022-09-28T22:21:59.124Z,99347.84
2022-09-28T22:24:28.964Z,99348.88
2022-09-28T22:26:58.741Z,99348.88
2022-09-28T22:29:28.671Z,99352.78
2022-09-28T22:32:02.471Z,99357.28
2022-09-28T22:34:32.308Z,99355.66
2022-09-28T22:37:06.149Z,99361.19
2022-09-28T22:39:37.839Z,99362.00
2022-09-28T22:42:08.484Z,99362.44
2022-09-28T22:44:38.552Z,99370.81
2022-09-28T22:47:11.197Z,99366.53
2022-09-28T22:49:41.239Z,99363.88
2022-09-28T22:52:11.155Z,99360.16
2022-09-28T22:54:41.544Z,99369.19
2022-09-28T22:57:11.451Z,99374.50
2022-09-28T22:59:41.394Z,99363.88
2022-09-28T23:02:13.937Z,99366.72
2022-09-28T23:04:43.851Z,99361.41
2022-09-28T23:07:13.812Z,99368.59
2022-09-28T23:09:44.313Z,99360.19
2022-09-28T23:12:14.109Z,99363.88
2022-09-28T23:14:44.064Z,99359.59
2022-09-28T23:17:16.575Z,99359.00
2022-09-28T23:19:46.632Z,99366.38
2022-09-28T23:22:16.530Z,99365.97
2022-09-28T23:24:46.599Z,99365.97
2022-09-28T23:27:16.791Z,99356.34
2022-09-28T23:29:49.146Z,99365.38
2022-09-28T23:32:21.818Z,99356.78
2022-09-28T23:34:51.630Z,99354.31
2022-09-28T23:37:21.418Z,99349.38
2022-09-28T23:39:51.688Z,99361.66
2022-09-28T23:42:21.459Z,99361.06
2022-09-28T23:44:51.304Z,99363.13
2022-09-28T23:47:24.485Z,99355.34
2022-09-28T23:49:54.319Z,99358.22
2022-09-28T23:52:24.112Z,99359.25
2022-09-28T23:54:53.959Z,99361.28
2022-09-28T23:57:23.854Z,99364.97
2022-09-28T23:59:53.641Z,99365.41
